Forside
METAR-TAF:

METAR-TAF

Lufthavne :

Charles City, Iowa, USA

Breddekreds: 43-04N, længdekreds: 092-37W, højde: 343 m

Aktuelle vejr

Denne rapport blev lavet for 14 minutter siden, kl. 21:15 UTC
Vind 5 kt fra vest
Temperatur -3°C
Fugtighed 100%
Tryk 1012 hPa
Sigt: 9.7 km
Overskyet i en højde af 500 ft
dis

METAR: KCCY 262115Z AUTO 28005KT 6SM BR OVC005 M03/M03 A2989 RMK AO2

Tid: 15:29 (21:29 UTC)


TAF: fraværende

Vejrobservationer og prognoser fra mere end 4000 lufthavne (METAR og TAF).

De gule og røde prikker repræsenterer de meteorologiske stationer.

Flyt musen over at se navnet på stationen.

Så klik over at se vejr observationer og prognoser.

At skifte det kort: Klik på de grønne knapper med et sort kors for at zoome ind; på den grønne knap med en bindestreg for at zoome ud; eller på de grønne pile for tilstødende kort.


METAR-TAF: